createdAt,value
2022-10-13T00:01:09.296Z,10.18
2022-10-13T00:04:12.342Z,10.16
2022-10-13T00:07:15.113Z,10.13
2022-10-13T00:10:17.866Z,10.12
2022-10-13T00:13:21.040Z,10.08
2022-10-13T00:16:24.645Z,10.06
2022-10-13T00:19:27.964Z,10.03
2022-10-13T00:22:33.049Z,10.00
2022-10-13T00:25:35.837Z,9.96
2022-10-13T00:28:39.917Z,9.99
2022-10-13T00:31:42.684Z,10.01
2022-10-13T00:34:45.724Z,10.00
2022-10-13T00:37:48.774Z,9.99
2022-10-13T00:40:55.233Z,9.98
2022-10-13T00:44:07.385Z,9.93
2022-10-13T00:47:10.429Z,9.90
2022-10-13T00:50:36.846Z,9.89
2022-10-13T00:53:40.720Z,9.83
2022-10-13T00:56:45.419Z,9.75
2022-10-13T00:59:49.076Z,9.69
2022-10-13T01:02:52.759Z,9.71
2022-10-13T01:05:58.610Z,9.76
2022-10-13T01:09:01.580Z,9.76
2022-10-13T01:12:28.904Z,9.73
2022-10-13T01:15:55.574Z,9.70
2022-10-13T01:19:43.579Z,9.70
2022-10-13T01:23:08.178Z,9.69
2022-10-13T01:26:32.953Z,9.67
2022-10-13T01:29:45.152Z,9.63
2022-10-13T01:33:13.220Z,9.63
2022-10-13T01:36:26.823Z,9.57
2022-10-13T01:39:41.989Z,9.52
2022-10-13T01:43:08.054Z,9.52
2022-10-13T01:46:17.844Z,9.53
2022-10-13T01:49:24.825Z,9.55
2022-10-13T01:52:34.691Z,9.55
2022-10-13T01:55:37.566Z,9.54
2022-10-13T01:58:40.798Z,9.59
2022-10-13T02:02:21.852Z,9.63
2022-10-13T02:05:31.086Z,9.67
2022-10-13T02:08:44.823Z,9.64
2022-10-13T02:11:55.543Z,9.60
2022-10-13T02:15:01.427Z,9.59
2022-10-13T02:18:05.115Z,9.56
2022-10-13T02:21:08.084Z,9.54
2022-10-13T02:24:11.470Z,9.41
2022-10-13T02:27:14.379Z,9.40
2022-10-13T02:30:27.084Z,9.42
2022-10-13T02:33:29.883Z,9.42
2022-10-13T02:36:33.590Z,9.38
2022-10-13T02:39:36.320Z,9.39
2022-10-13T02:42:39.393Z,9.39
2022-10-13T02:45:42.361Z,9.39
2022-10-13T02:48:45.150Z,9.27
2022-10-13T02:51:47.885Z,9.20
2022-10-13T02:54:50.646Z,9.22
2022-10-13T02:57:54.709Z,9.24
2022-10-13T03:01:09.077Z,9.29
2022-10-13T03:04:12.485Z,9.29
2022-10-13T03:07:15.839Z,9.30
2022-10-13T03:10:18.628Z,9.30
2022-10-13T03:13:21.496Z,9.33
2022-10-13T03:16:24.264Z,9.35
2022-10-13T03:19:27.044Z,9.30
2022-10-13T03:22:32.569Z,9.19
2022-10-13T03:25:35.566Z,9.18
2022-10-13T03:28:38.374Z,9.21
2022-10-13T03:31:41.892Z,9.20
2022-10-13T03:34:44.795Z,9.22
2022-10-13T03:37:47.556Z,9.21
2022-10-13T03:40:50.459Z,9.18
2022-10-13T03:43:54.401Z,9.18
2022-10-13T03:46:57.088Z,9.18
2022-10-13T03:49:59.814Z,9.20
2022-10-13T03:53:02.500Z,9.24
2022-10-13T03:56:06.853Z,9.21
2022-10-13T03:59:12.455Z,9.23
2022-10-13T04:02:15.244Z,9.19
2022-10-13T04:05:18.121Z,9.13
2022-10-13T04:08:20.879Z,9.13
2022-10-13T04:11:24.211Z,9.14
2022-10-13T04:14:27.092Z,9.16
2022-10-13T04:17:29.939Z,9.18
2022-10-13T04:20:37.216Z,9.16
2022-10-13T04:23:40.074Z,9.15
2022-10-13T04:26:42.912Z,9.16
2022-10-13T04:29:45.837Z,9.14
2022-10-13T04:32:48.766Z,9.14
2022-10-13T04:35:52.072Z,9.16
2022-10-13T04:38:55.199Z,9.08
2022-10-13T04:42:23.371Z,9.07
2022-10-13T04:45:26.822Z,8.99
2022-10-13T04:48:29.834Z,8.94
2022-10-13T04:51:33.197Z,8.93
2022-10-13T04:54:36.274Z,8.94
2022-10-13T04:57:39.105Z,8.93
2022-10-13T05:00:46.660Z,8.91
2022-10-13T05:03:54.477Z,8.90
2022-10-13T05:07:17.143Z,8.87
2022-10-13T05:10:20.363Z,8.85
2022-10-13T05:13:24.757Z,8.85
2022-10-13T05:16:29.290Z,8.81
2022-10-13T05:19:33.132Z,8.77
2022-10-13T05:22:35.930Z,8.74
2022-10-13T05:26:17.914Z,8.71
2022-10-13T05:29:20.665Z,8.58
2022-10-13T05:32:24.281Z,8.59
2022-10-13T05:35:27.850Z,8.58
2022-10-13T05:38:36.767Z,8.58
2022-10-13T05:41:39.635Z,8.56
2022-10-13T05:44:42.540Z,8.56
2022-10-13T05:47:45.337Z,8.57
2022-10-13T05:50:48.195Z,8.49
2022-10-13T05:54:08.791Z,8.41
2022-10-13T05:57:16.583Z,8.32
2022-10-13T06:00:19.959Z,8.37
2022-10-13T06:03:23.592Z,8.49
2022-10-13T06:06:30.572Z,8.55
2022-10-13T06:09:38.027Z,8.56
2022-10-13T06:12:41.020Z,8.50
2022-10-13T06:15:43.813Z,8.48
2022-10-13T06:18:46.960Z,8.40
2022-10-13T06:21:49.841Z,8.43
2022-10-13T06:24:52.679Z,8.48
2022-10-13T06:28:00.262Z,8.56
2022-10-13T06:31:07.978Z,8.61
2022-10-13T06:34:11.138Z,8.60
2022-10-13T06:37:13.916Z,8.62
2022-10-13T06:40:17.225Z,8.51
2022-10-13T06:43:20.270Z,8.55
2022-10-13T06:46:23.105Z,8.60
2022-10-13T06:49:25.882Z,8.67
2022-10-13T06:52:28.703Z,8.72
2022-10-13T06:55:31.626Z,8.80
2022-10-13T06:58:35.722Z,8.82
2022-10-13T07:01:41.673Z,8.89
2022-10-13T07:04:44.610Z,8.99
2022-10-13T07:07:47.565Z,9.08
2022-10-13T07:10:51.443Z,9.14
2022-10-13T07:13:54.701Z,9.20
2022-10-13T07:16:57.509Z,9.24
2022-10-13T07:20:03.700Z,9.29
2022-10-13T07:23:10.012Z,9.30
2022-10-13T07:26:15.021Z,9.38
2022-10-13T07:29:17.945Z,9.40
2022-10-13T07:32:20.918Z,9.48
2022-10-13T07:35:30.274Z,9.54
2022-10-13T07:38:33.700Z,9.57
2022-10-13T07:41:37.305Z,9.63
2022-10-13T07:44:40.324Z,9.66
2022-10-13T07:47:43.080Z,9.66
2022-10-13T07:50:45.828Z,9.66
2022-10-13T07:53:49.323Z,9.70
2022-10-13T07:56:52.920Z,9.75
2022-10-13T07:59:55.908Z,9.76
2022-10-13T08:02:58.998Z,9.80
2022-10-13T08:06:04.294Z,9.85
2022-10-13T08:09:07.180Z,9.93
2022-10-13T08:12:10.481Z,10.00
2022-10-13T08:15:13.577Z,10.08
2022-10-13T08:18:16.592Z,10.15
2022-10-13T08:21:53.389Z,10.21
2022-10-13T08:24:44.511Z,10.27
2022-10-13T08:27:51.673Z,10.31
2022-10-13T08:30:59.592Z,10.35
2022-10-13T08:34:02.497Z,10.38
2022-10-13T08:37:05.778Z,10.41
2022-10-13T08:40:14.795Z,10.48
2022-10-13T08:43:21.648Z,10.53
2022-10-13T08:46:38.749Z,10.61
2022-10-13T08:49:43.539Z,10.70
2022-10-13T08:52:52.800Z,10.81
2022-10-13T08:56:15.901Z,10.93
2022-10-13T08:59:19.378Z,11.06
2022-10-13T09:02:27.326Z,11.20
2022-10-13T09:05:42.128Z,11.35
2022-10-13T09:08:56.967Z,11.45
2022-10-13T09:12:00.137Z,11.57
2022-10-13T09:15:10.151Z,11.69
2022-10-13T09:18:14.378Z,11.82
2022-10-13T09:21:22.811Z,11.92
2022-10-13T09:24:27.443Z,12.01
2022-10-13T09:28:01.136Z,12.05
2022-10-13T09:31:15.709Z,12.15
2022-10-13T09:34:19.082Z,12.27
2022-10-13T09:37:24.586Z,12.34
2022-10-13T09:40:31.455Z,12.44
2022-10-13T09:43:37.875Z,12.51
2022-10-13T09:47:04.408Z,12.53
2022-10-13T09:50:20.171Z,12.62
2022-10-13T09:53:33.759Z,12.72
2022-10-13T09:56:49.077Z,12.77
2022-10-13T10:00:22.882Z,12.82
2022-10-13T10:03:35.786Z,12.83
2022-10-13T10:06:40.533Z,12.79
2022-10-13T10:10:08.258Z,12.76
2022-10-13T10:13:13.337Z,12.75
2022-10-13T10:16:21.734Z,12.75
2022-10-13T10:20:00.934Z,12.78
2022-10-13T10:23:28.084Z,12.81
2022-10-13T10:26:50.185Z,12.86
2022-10-13T10:30:15.727Z,12.93
2022-10-13T10:33:35.499Z,13.01
2022-10-13T10:36:48.816Z,13.08
2022-10-13T10:39:59.998Z,13.16
2022-10-13T10:44:02.381Z,13.20
2022-10-13T10:47:26.516Z,13.25
2022-10-13T10:50:31.711Z,13.34
2022-10-13T10:53:54.742Z,13.45
2022-10-13T10:57:16.167Z,13.55
2022-10-13T11:00:22.468Z,13.65
2022-10-13T11:03:42.776Z,13.72
2022-10-13T11:06:45.591Z,13.77
2022-10-13T11:09:48.422Z,13.85
2022-10-13T11:12:51.418Z,13.95
2022-10-13T11:15:55.816Z,14.05
2022-10-13T11:19:05.916Z,14.15
2022-10-13T11:22:21.149Z,14.23
2022-10-13T11:25:45.080Z,14.32
2022-10-13T11:28:48.382Z,14.40
2022-10-13T11:31:54.483Z,14.49
2022-10-13T11:35:21.189Z,14.61
2022-10-13T11:38:36.186Z,14.74
2022-10-13T11:41:55.126Z,14.85
2022-10-13T11:45:00.816Z,14.96
2022-10-13T11:48:36.693Z,15.06
2022-10-13T11:52:06.079Z,15.16
2022-10-13T11:55:18.743Z,15.26
2022-10-13T11:58:27.612Z,15.43
2022-10-13T12:01:30.521Z,15.56
2022-10-13T12:04:33.591Z,15.66
2022-10-13T12:07:40.749Z,15.76
2022-10-13T12:10:43.912Z,15.82
2022-10-13T12:13:47.456Z,15.80
2022-10-13T12:16:57.805Z,15.78
2022-10-13T12:20:16.776Z,15.79
2022-10-13T12:23:19.771Z,15.83
2022-10-13T12:26:25.420Z,15.95
2022-10-13T12:29:34.882Z,16.06
2022-10-13T12:32:50.592Z,16.18
2022-10-13T12:35:53.524Z,16.19
2022-10-13T12:39:00.938Z,16.13
2022-10-13T12:42:07.005Z,16.11
2022-10-13T12:45:18.849Z,16.27
2022-10-13T12:48:35.411Z,16.37
2022-10-13T12:51:39.614Z,16.38
2022-10-13T12:54:55.059Z,16.37
2022-10-13T12:57:58.181Z,16.33
2022-10-13T13:01:08.539Z,16.32
2022-10-13T13:04:19.312Z,16.32
2022-10-13T13:07:33.692Z,16.31
2022-10-13T13:10:36.702Z,16.28
2022-10-13T13:13:39.716Z,16.26
2022-10-13T13:17:01.445Z,16.22
2022-10-13T13:20:19.981Z,16.16
2022-10-13T13:23:23.706Z,16.10
2022-10-13T13:26:26.644Z,16.05
2022-10-13T13:29:29.453Z,16.00
2022-10-13T13:32:32.277Z,15.95
2022-10-13T13:35:35.045Z,15.91
2022-10-13T13:38:38.163Z,15.90
2022-10-13T13:41:41.103Z,15.88
2022-10-13T13:44:44.126Z,15.87
2022-10-13T13:47:47.345Z,15.87
2022-10-13T13:50:50.388Z,15.88
2022-10-13T13:53:53.230Z,15.90
2022-10-13T13:56:58.784Z,15.94
2022-10-13T14:00:02.162Z,15.99
2022-10-13T14:03:05.113Z,16.03
2022-10-13T14:06:08.412Z,16.04
2022-10-13T14:09:11.296Z,16.05
2022-10-13T14:12:14.324Z,16.04
2022-10-13T14:15:17.496Z,16.03
2022-10-13T14:18:21.994Z,16.02
2022-10-13T14:21:25.673Z,16.02
2022-10-13T14:24:28.892Z,16.02
2022-10-13T14:27:34.080Z,16.01
2022-10-13T14:30:40.159Z,16.00
2022-10-13T14:33:43.217Z,15.99
2022-10-13T14:36:46.128Z,15.98
2022-10-13T14:39:50.176Z,15.96
2022-10-13T14:42:53.803Z,15.98
2022-10-13T14:46:01.903Z,15.98
2022-10-13T14:49:04.802Z,16.02
2022-10-13T14:52:08.905Z,16.07
2022-10-13T14:55:11.878Z,16.10
2022-10-13T14:58:14.762Z,16.13
2022-10-13T15:01:18.561Z,16.15
2022-10-13T15:04:21.314Z,16.14
2022-10-13T15:07:24.223Z,16.12
2022-10-13T15:10:27.108Z,16.07
2022-10-13T15:13:30.220Z,16.03
2022-10-13T15:16:34.124Z,15.98
2022-10-13T15:19:39.572Z,15.92
2022-10-13T15:22:42.448Z,15.87
2022-10-13T15:26:00.170Z,15.81
2022-10-13T15:29:04.709Z,15.78
2022-10-13T15:32:18.544Z,15.77
2022-10-13T15:35:21.693Z,15.75
2022-10-13T15:38:25.830Z,15.73
2022-10-13T15:41:29.419Z,15.69
2022-10-13T15:44:51.051Z,15.65
2022-10-13T15:47:57.758Z,15.57
2022-10-13T15:51:01.553Z,15.54
2022-10-13T15:54:05.160Z,15.49
2022-10-13T15:57:08.946Z,15.46
2022-10-13T16:00:14.120Z,15.43
2022-10-13T16:03:18.112Z,15.39
2022-10-13T16:06:22.636Z,15.36
2022-10-13T16:09:25.938Z,15.32
2022-10-13T16:12:28.922Z,15.27
2022-10-13T16:15:31.976Z,15.23
2022-10-13T16:18:37.478Z,15.19
2022-10-13T16:21:40.290Z,15.20
2022-10-13T16:24:43.052Z,15.16
2022-10-13T16:27:46.150Z,15.11
2022-10-13T16:30:48.990Z,15.07
2022-10-13T16:33:51.834Z,15.00
2022-10-13T16:36:54.595Z,14.95
2022-10-13T16:39:57.919Z,14.91
2022-10-13T16:43:00.748Z,14.83
2022-10-13T16:46:05.503Z,14.76
2022-10-13T16:49:08.686Z,14.74
2022-10-13T16:52:11.590Z,14.70
2022-10-13T16:55:18.158Z,14.64
2022-10-13T16:58:20.991Z,14.57
2022-10-13T17:01:24.759Z,14.55
2022-10-13T17:04:27.575Z,14.53
2022-10-13T17:07:30.335Z,14.50
2022-10-13T17:10:34.959Z,14.50
2022-10-13T17:13:37.761Z,14.50
2022-10-13T17:16:40.635Z,14.49
2022-10-13T17:19:45.169Z,14.49
2022-10-13T17:22:48.593Z,14.47
2022-10-13T17:25:51.978Z,14.44
2022-10-13T17:28:54.784Z,14.38
2022-10-13T17:31:57.796Z,14.34
2022-10-13T17:35:00.771Z,14.28
2022-10-13T17:38:03.681Z,14.29
2022-10-13T17:41:08.003Z,14.29
2022-10-13T17:44:11.800Z,14.27
2022-10-13T17:47:14.542Z,14.24
2022-10-13T17:50:18.181Z,14.23
2022-10-13T17:53:21.101Z,14.21
2022-10-13T17:56:25.036Z,14.19
2022-10-13T17:59:27.906Z,14.20
2022-10-13T18:02:30.765Z,14.16
2022-10-13T18:05:34.955Z,14.17
2022-10-13T18:08:37.765Z,14.15
2022-10-13T18:11:47.072Z,14.11
2022-10-13T18:14:53.167Z,14.10
2022-10-13T18:17:56.644Z,14.07
2022-10-13T18:21:05.361Z,14.06
2022-10-13T18:24:10.151Z,13.98
2022-10-13T18:27:13.065Z,13.93
2022-10-13T18:30:21.407Z,13.95
2022-10-13T18:33:25.336Z,13.96
2022-10-13T18:36:36.135Z,13.96
2022-10-13T18:39:42.203Z,13.90
2022-10-13T18:42:49.634Z,13.90
2022-10-13T18:46:00.227Z,13.87
2022-10-13T18:49:05.604Z,13.84
2022-10-13T18:52:08.823Z,13.83
2022-10-13T18:55:11.807Z,13.81
2022-10-13T18:58:15.115Z,13.82
2022-10-13T19:01:21.282Z,13.84
2022-10-13T19:04:26.299Z,13.79
2022-10-13T19:07:29.097Z,13.76
2022-10-13T19:10:31.976Z,13.80
2022-10-13T19:13:34.838Z,13.81
2022-10-13T19:16:41.219Z,13.82
2022-10-13T19:19:44.205Z,13.82
2022-10-13T19:22:47.366Z,13.84
2022-10-13T19:25:50.572Z,13.85
2022-10-13T19:28:55.243Z,13.85
2022-10-13T19:31:58.034Z,13.84
2022-10-13T19:35:01.357Z,13.85
2022-10-13T19:38:04.239Z,13.87
2022-10-13T19:41:07.483Z,13.85
2022-10-13T19:44:10.744Z,13.81
2022-10-13T19:47:13.720Z,13.82
2022-10-13T19:50:16.776Z,13.77
2022-10-13T19:53:20.421Z,13.78
2022-10-13T19:56:28.041Z,13.78
2022-10-13T19:59:30.910Z,13.78
2022-10-13T20:02:33.751Z,13.75
2022-10-13T20:05:41.394Z,13.79
2022-10-13T20:08:45.682Z,13.78
2022-10-13T20:11:50.378Z,13.72
2022-10-13T20:14:53.280Z,13.78
2022-10-13T20:17:56.043Z,13.78
2022-10-13T20:21:02.819Z,13.80
2022-10-13T20:24:07.316Z,13.74
2022-10-13T20:27:10.782Z,13.70
2022-10-13T20:30:14.083Z,13.73
2022-10-13T20:33:17.029Z,13.71
2022-10-13T20:36:19.870Z,13.71
2022-10-13T20:39:22.705Z,13.72
2022-10-13T20:42:25.539Z,13.71
2022-10-13T20:45:28.366Z,13.64
2022-10-13T20:48:51.127Z,13.64
2022-10-13T20:51:55.638Z,13.63
2022-10-13T20:54:58.599Z,13.62
2022-10-13T20:58:01.403Z,13.60
2022-10-13T21:01:04.543Z,13.60
2022-10-13T21:04:07.463Z,13.58
2022-10-13T21:07:10.296Z,13.53
2022-10-13T21:10:13.228Z,13.59
2022-10-13T21:13:17.011Z,13.65
2022-10-13T21:16:29.235Z,13.64
2022-10-13T21:19:32.329Z,13.52
2022-10-13T21:22:35.292Z,13.49
2022-10-13T21:25:39.248Z,13.47
2022-10-13T21:28:42.231Z,13.51
2022-10-13T21:31:45.056Z,13.53
2022-10-13T21:34:48.613Z,13.48
2022-10-13T21:37:51.514Z,13.42
2022-10-13T21:40:54.328Z,13.35
2022-10-13T21:43:57.933Z,13.30
2022-10-13T21:47:00.839Z,13.23
2022-10-13T21:50:05.120Z,13.25
2022-10-13T21:53:08.826Z,13.18
2022-10-13T21:56:12.066Z,13.09
2022-10-13T21:59:15.103Z,13.07
2022-10-13T22:05:38.398Z,13.02
2022-10-13T22:08:43.994Z,13.07
2022-10-13T22:11:46.735Z,13.08
2022-10-13T22:14:49.550Z,13.04
2022-10-13T22:17:52.519Z,13.09
2022-10-13T22:20:55.278Z,13.10
2022-10-13T22:24:00.582Z,13.09
2022-10-13T22:27:03.494Z,13.07
2022-10-13T22:30:06.955Z,12.99
2022-10-13T22:33:09.705Z,12.93
2022-10-13T22:36:18.659Z,12.90
2022-10-13T22:39:21.662Z,12.91
2022-10-13T22:42:25.166Z,12.87
2022-10-13T22:45:28.138Z,12.86
2022-10-13T22:48:31.124Z,12.88
2022-10-13T22:51:36.747Z,12.80
2022-10-13T22:54:39.568Z,12.86
2022-10-13T22:57:42.353Z,12.85
2022-10-13T23:00:45.088Z,12.76
2022-10-13T23:03:49.575Z,12.77
2022-10-13T23:06:52.396Z,12.82
2022-10-13T23:09:55.458Z,12.82
2022-10-13T23:12:58.316Z,12.83
2022-10-13T23:16:08.983Z,12.88
2022-10-13T23:19:12.071Z,12.93
2022-10-13T23:22:15.655Z,12.89
2022-10-13T23:25:18.569Z,12.88
2022-10-13T23:28:21.565Z,12.90
2022-10-13T23:31:25.438Z,12.88
2022-10-13T23:34:29.339Z,12.91
2022-10-13T23:37:32.513Z,12.85
2022-10-13T23:40:35.481Z,12.84
2022-10-13T23:43:38.425Z,12.88
2022-10-13T23:46:41.222Z,12.90
2022-10-13T23:49:44.101Z,12.92
2022-10-13T23:52:46.879Z,12.89
2022-10-13T23:55:49.937Z,12.88
2022-10-13T23:58:52.832Z,12.95
